Time;durP1;ratioP1;P1;durP2;ratioP2;P2;SDS_P1;SDS_P2;PMS_P1;PMS_P2;Temp;Humidity;BMP_temperature;BMP_pressure;BME280_temperature;BME280_humidity;BME280_pressure;Samples;Min_cycle;Max_cycle;Signal;HPM_P1;HPM_P2
2022/04/28 00:01:43;;;;;;;6.00;2.53;;;;;;;8.21;63.53;101333.56;5102951;28;20031;-79
2022/04/28 00:04:08;;;;;;;7.17;2.93;;;;;;;8.17;64.07;101335.75;5103900;28;20094;-79
2022/04/28 00:06:34;;;;;;;5.13;2.23;;;;;;;8.15;63.85;101335.06;5104646;28;20083;-79
2022/04/28 00:08:59;;;;;;;7.90;2.42;;;;;;;8.10;64.46;101336.56;5104549;28;20024;-79
2022/04/28 00:11:25;;;;;;;6.50;2.83;;;;;;;8.06;64.46;101340.63;5104394;28;20032;-78
2022/04/28 00:13:50;;;;;;;6.57;2.80;;;;;;;8.06;64.79;101336.06;5105851;28;20035;-78
2022/04/28 00:16:15;;;;;;;5.40;2.08;;;;;;;8.04;64.65;101343.47;5105062;28;20074;-79
2022/04/28 00:18:41;;;;;;;6.23;2.43;;;;;;;7.95;65.22;101341.75;5103410;28;20486;-79
2022/04/28 00:21:06;;;;;;;5.88;2.53;;;;;;;7.94;65.01;101337.41;5085273;28;20266;-79
2022/04/28 00:23:31;;;;;;;6.03;2.70;;;;;;;7.91;65.02;101333.19;5084941;28;20032;-79
2022/04/28 00:25:57;;;;;;;9.13;3.20;;;;;;;7.88;65.48;101330.84;5102486;28;20467;-79
2022/04/28 00:28:22;;;;;;;6.43;2.53;;;;;;;7.81;65.90;101329.00;5102514;28;20032;-78
2022/04/28 00:30:48;;;;;;;7.83;2.63;;;;;;;7.76;66.03;101332.16;5101374;28;20063;-79
2022/04/28 00:33:13;;;;;;;6.55;2.85;;;;;;;7.81;66.05;101331.69;5084252;28;20111;-79
2022/04/28 00:35:38;;;;;;;5.50;2.70;;;;;;;7.73;66.00;101339.69;5102198;28;20032;-79
2022/04/28 00:38:04;;;;;;;7.17;2.87;;;;;;;7.71;65.99;101337.19;5102150;28;20020;-78
2022/04/28 00:40:30;;;;;;;10.57;3.10;;;;;;;7.62;66.63;101333.66;5101067;28;20266;-78
2022/04/28 00:43:18;;;;;;;7.38;2.92;;;;;;;7.58;67.00;101332.28;5084062;28;20118;-79
2022/04/28 00:45:40;;;;;;;9.85;2.90;;;;;;;7.57;67.06;101341.34;5101394;28;20028;-79
2022/04/28 00:50:50;;;;;;;8.38;3.00;;;;;;;7.46;67.38;101332.75;5102594;28;20120;-78
2022/04/28 00:53:16;;;;;;;5.95;2.63;;;;;;;7.44;67.53;101332.06;5102482;28;20085;-79
2022/04/28 00:55:42;;;;;;;6.60;2.83;;;;;;;7.42;67.13;101340.28;5103461;28;20466;-79
2022/04/28 00:58:10;;;;;;;6.75;2.83;;;;;;;7.45;67.77;101341.81;5085525;28;20032;-78
2022/04/28 01:00:36;;;;;;;7.97;3.05;;;;;;;7.47;67.28;101339.81;5104910;28;20032;-78
2022/04/28 01:03:02;;;;;;;7.88;3.03;;;;;;;7.41;67.73;101335.91;5100278;28;20068;-78
2022/04/28 01:05:27;;;;;;;6.10;2.53;;;;;;;7.36;67.66;101332.88;5100542;28;20068;-78
2022/04/28 01:07:52;;;;;;;8.33;3.07;;;;;;;7.33;68.17;101330.53;5101043;28;20024;-78
2022/04/28 01:10:18;;;;;;;11.77;4.07;;;;;;;7.32;68.04;101332.38;5083468;28;20111;-79
2022/04/28 01:12:43;;;;;;;6.50;2.43;;;;;;;7.31;68.44;101333.38;5102506;28;20101;-77
2022/04/28 01:15:09;;;;;;;9.75;3.03;;;;;;;7.36;68.44;101342.75;5088684;28;20415;-78
2022/04/28 01:17:34;;;;;;;8.07;2.42;;;;;;;7.46;68.10;101338.13;5092984;28;20078;-78
2022/04/28 01:20:00;;;;;;;7.43;3.47;;;;;;;7.38;67.95;101343.44;5112927;28;20386;-78
2022/04/28 01:22:26;;;;;;;7.72;3.40;;;;;;;7.28;68.46;101343.56;5111102;28;20032;-78
2022/04/28 01:24:51;;;;;;;6.82;2.95;;;;;;;7.27;68.07;101350.78;5102616;28;20085;-79
2022/04/28 01:27:18;;;;;;;8.37;3.20;;;;;;;7.20;68.22;101354.25;5103326;28;20035;-79
2022/04/28 01:29:44;;;;;;;7.30;3.55;;;;;;;7.17;68.60;101352.72;5103333;28;20028;-79
2022/04/28 01:32:09;;;;;;;8.63;3.33;;;;;;;7.15;68.52;101357.44;5110678;28;20059;-78
2022/04/28 01:34:34;;;;;;;8.30;3.50;;;;;;;7.09;69.09;101358.06;5109902;28;20059;-78
2022/04/28 01:36:59;;;;;;;7.10;3.10;;;;;;;7.04;69.33;101355.00;5109874;28;20031;-78
2022/04/28 01:39:25;;;;;;;10.17;3.53;;;;;;;7.01;69.14;101357.16;5101200;28;20024;-77
2022/04/28 01:41:50;;;;;;;9.63;3.50;;;;;;;6.99;69.25;101362.69;5097338;28;20036;-77
2022/04/28 01:44:16;;;;;;;7.43;3.22;;;;;;;6.93;69.39;101364.16;5097261;28;20161;-78
2022/04/28 01:46:41;;;;;;;6.88;3.20;;;;;;;6.92;69.50;101359.81;5097582;28;20039;-78
2022/04/28 01:49:07;;;;;;;8.00;3.22;;;;;;;6.95;69.46;101361.34;5099965;28;20043;-78
2022/04/28 01:57:00;;;;;;;6.97;2.85;;;;;;;6.82;70.64;101352.88;5101080;28;20077;-78
2022/04/28 01:59:25;;;;;;;7.43;3.20;;;;;;;6.86;70.03;101354.22;5081825;28;20134;-78
2022/04/28 02:01:51;;;;;;;9.83;3.40;;;;;;;6.83;70.52;101359.91;5100683;28;20028;-78
2022/04/28 02:04:16;;;;;;;7.67;3.20;;;;;;;6.75;70.79;101357.19;5099996;28;20553;-79
2022/04/28 02:06:43;;;;;;;10.03;3.73;;;;;;;6.76;70.67;101350.84;5095028;28;20413;-78
2022/04/28 02:09:08;;;;;;;9.23;3.35;;;;;;;6.69;71.12;101347.09;5094986;28;20024;-77
2022/04/28 02:11:33;;;;;;;8.27;3.47;;;;;;;6.67;71.36;101355.28;5096993;28;20042;-79
2022/04/28 02:13:58;;;;;;;11.53;3.83;;;;;;;6.63;71.15;101355.78;5095471;28;20131;-77
2022/04/28 02:16:24;;;;;;;8.73;3.57;;;;;;;6.65;71.71;101353.75;5094413;28;20038;-77
2022/04/28 02:18:49;;;;;;;11.50;3.47;;;;;;;6.63;71.73;101359.25;5094495;28;20486;-77
2022/04/28 02:21:14;;;;;;;13.13;3.47;;;;;;;6.64;71.77;101352.91;5094284;28;20024;-77
2022/04/28 02:23:39;;;;;;;9.40;3.03;;;;;;;6.63;71.59;101358.44;5094488;28;20020;-77
2022/04/28 02:26:05;;;;;;;7.63;4.17;;;;;;;6.63;71.22;101356.59;5094043;28;20406;-77
2022/04/28 02:28:30;;;;;;;8.07;3.37;;;;;;;6.60;72.06;101359.59;5094302;28;20076;-76
2022/04/28 02:30:55;;;;;;;8.23;3.30;;;;;;;6.60;71.55;101368.47;5094032;28;20092;-76
2022/04/28 02:33:20;;;;;;;10.07;3.77;;;;;;;6.63;71.72;101352.06;5075965;28;20472;-77
2022/04/28 02:35:46;;;;;;;6.73;3.63;;;;;;;6.66;71.81;101367.00;5094054;28;20028;-77
2022/04/28 02:38:12;;;;;;;9.63;3.35;;;;;;;6.68;71.79;101365.00;5094070;28;20460;-77
2022/04/28 02:40:37;;;;;;;9.57;3.15;;;;;;;6.53;72.10;101364.72;5094104;28;20043;-77
2022/04/28 02:43:03;;;;;;;7.93;3.20;;;;;;;6.52;72.38;101365.72;5076109;28;20408;-77
2022/04/28 02:45:28;;;;;;;8.03;3.33;;;;;;;6.42;72.47;101365.00;5093236;28;20032;-77
2022/04/28 02:47:53;;;;;;;9.70;4.03;;;;;;;6.36;72.80;101360.25;5075989;28;20617;-77
2022/04/28 02:50:21;;;;;;;10.63;4.77;;;;;;;6.38;73.00;101363.59;5094755;28;20077;-76
2022/04/28 02:52:48;;;;;;;8.35;3.97;;;;;;;6.32;72.86;101364.22;5076252;28;20131;-77
2022/04/28 02:55:13;;;;;;;;;;;;;;;6.35;73.45;101358.56;5095375;28;20390;-77
2022/04/28 02:57:38;;;;;;;8.30;3.60;;;;;;;6.26;73.06;101359.50;5094487;28;19908;-76
2022/04/28 03:00:05;;;;;;;13.27;4.87;;;;;;;6.34;73.41;101364.06;5093780;28;20542;-77
2022/04/28 03:02:31;;;;;;;7.68;3.50;;;;;;;6.32;73.80;101363.38;5093927;28;20031;-77
2022/04/28 03:04:57;;;;;;;11.57;4.10;;;;;;;6.36;73.06;101359.41;5095573;28;20066;-77
2022/04/28 03:12:51;;;;;;;10.05;4.18;;;;;;;6.25;73.34;101369.38;5101662;28;20054;-81
2022/04/28 03:15:16;;;;;;;10.55;3.65;;;;;;;6.32;73.88;101360.69;5104393;28;20032;-81
2022/04/28 03:17:42;;;;;;;10.10;4.00;;;;;;;6.15;74.17;101362.38;5104730;28;20032;-81
2022/04/28 03:20:08;;;;;;;7.75;3.35;;;;;;;6.12;74.24;101363.53;5100868;28;20028;-81
2022/04/28 03:22:36;;;;;;;10.52;4.13;;;;;;;6.08;74.71;101364.00;5078330;28;20036;-81
2022/04/28 03:25:02;;;;;;;10.35;3.60;;;;;;;6.11;74.30;101371.72;5096939;28;20031;-82
2022/04/28 03:27:28;;;;;;;10.88;3.78;;;;;;;6.11;74.78;101366.34;5097014;28;20032;-82
2022/04/28 03:29:53;;;;;;;8.40;3.83;;;;;;;6.10;73.97;101370.03;5096669;28;20031;-81
2022/04/28 03:32:18;;;;;;;9.43;3.97;;;;;;;5.97;75.09;101362.38;5097066;28;20281;-82
2022/04/28 03:34:45;;;;;;;;;;;;;;;5.93;74.79;101367.19;5097311;28;20475;-82
2022/04/28 03:37:10;;;;;;;15.50;4.50;;;;;;;5.82;75.29;101372.75;5078669;28;19914;-81
2022/04/28 03:39:37;;;;;;;9.00;4.03;;;;;;;5.88;75.37;101366.81;5095220;28;20312;-81
2022/04/28 03:42:04;;;;;;;9.85;4.10;;;;;;;5.79;75.34;101378.38;5095701;28;20040;-82
2022/04/28 03:44:29;;;;;;;9.32;3.47;;;;;;;5.80;75.48;101382.75;5095563;28;20198;-81
2022/04/28 03:46:54;;;;;;;8.00;3.27;;;;;;;5.83;75.43;101370.91;5096010;28;20089;-82
2022/04/28 03:49:20;;;;;;;9.77;4.03;;;;;;;5.93;75.24;101369.03;5078084;28;20029;-82
2022/04/28 03:51:45;;;;;;;9.13;3.57;;;;;;;5.90;75.17;101369.34;5095879;28;20086;-81
2022/04/28 03:54:10;;;;;;;14.23;4.03;;;;;;;5.80;75.65;101374.72;5077115;28;20055;-83
2022/04/28 03:56:36;;;;;;;10.97;4.30;;;;;;;5.70;76.17;101373.09;5097767;28;20181;-81
2022/04/28 03:59:03;;;;;;;9.07;3.97;;;;;;;5.69;76.55;101382.13;5084803;28;20031;-81
2022/04/28 04:01:29;;;;;;;11.35;4.97;;;;;;;5.68;76.32;101377.75;5105263;28;20067;-83
2022/04/28 04:03:54;;;;;;;10.45;4.38;;;;;;;5.74;76.63;101377.97;5090125;28;20048;-80
2022/04/28 04:06:20;;;;;;;8.57;3.87;;;;;;;5.85;75.34;101377.78;5108175;28;20040;-82
2022/04/28 04:08:49;;;;;;;10.63;4.22;;;;;;;5.78;76.04;101368.69;5104393;28;20076;-83
2022/04/28 04:11:15;;;;;;;9.95;4.32;;;;;;;5.76;76.37;101369.81;5085954;28;20040;-85
2022/04/28 04:13:40;;;;;;;11.13;4.47;;;;;;;5.75;75.92;101374.31;5103300;28;20480;-83
2022/04/28 04:16:06;;;;;;;7.57;3.50;;;;;;;5.73;76.16;101380.84;5103563;28;20062;-83
2022/04/28 04:18:31;;;;;;;11.73;4.33;;;;;;;5.66;75.97;101374.41;5106905;28;20018;-84
2022/04/28 04:20:57;;;;;;;11.20;4.30;;;;;;;5.64;76.18;101379.03;5118412;28;20059;-83
2022/04/28 04:23:23;;;;;;;10.68;4.72;;;;;;;5.62;76.61;101375.69;5108518;28;20111;-84
2022/04/28 04:25:51;;;;;;;16.30;4.47;;;;;;;5.70;76.55;101384.66;5102426;28;20044;-82
2022/04/28 04:28:16;;;;;;;10.50;3.97;;;;;;;5.69;76.15;101382.13;5084742;28;20024;-82
2022/04/28 04:33:27;;;;;;;12.90;5.13;;;;;;;5.76;76.88;101386.69;5102997;28;20485;-83
2022/04/28 04:35:54;;;;;;;9.10;4.18;;;;;;;5.64;76.40;101395.09;5103364;28;20020;-82
2022/04/28 04:38:19;;;;;;;11.90;3.97;;;;;;;5.58;77.30;101394.69;5084509;28;20036;-81
2022/04/28 04:40:45;;;;;;;10.32;4.40;;;;;;;5.57;77.16;101395.66;5101335;28;20514;-79
2022/04/28 04:43:13;;;;;;;11.67;4.60;;;;;;;5.62;77.09;101397.06;5102479;28;20032;-81
2022/04/28 04:45:42;;;;;;;12.52;5.25;;;;;;;5.64;77.13;101400.44;5101798;28;20031;-82
2022/04/28 04:48:09;;;;;;;11.35;3.95;;;;;;;5.59;77.37;101399.03;5101433;28;20078;-82
2022/04/28 04:50:35;;;;;;;12.30;5.18;;;;;;;5.65;76.71;101402.13;5069213;28;20075;-82
2022/04/28 04:53:00;;;;;;;10.50;4.83;;;;;;;5.66;76.91;101411.81;5103811;28;20028;-80
2022/04/28 04:55:26;;;;;;;12.27;4.50;;;;;;;5.51;77.78;101406.13;5108505;28;20254;-80
2022/04/28 04:57:51;;;;;;;11.43;4.77;;;;;;;5.50;77.83;101404.44;5105292;28;20047;-80
2022/04/28 05:00:16;;;;;;;12.53;5.10;;;;;;;5.64;77.28;101408.47;5086639;28;20039;-80
2022/04/28 05:02:42;;;;;;;15.52;4.70;;;;;;;5.64;77.03;101406.63;5101151;28;20098;-80
2022/04/28 05:05:08;;;;;;;11.37;4.57;;;;;;;5.69;77.24;101412.38;5102035;28;20135;-81
2022/04/28 05:07:33;;;;;;;14.90;5.82;;;;;;;5.68;77.35;101413.38;5101792;28;20040;-81
2022/04/28 05:09:58;;;;;;;10.93;4.57;;;;;;;5.73;77.59;101418.28;5102031;28;20094;-81
2022/04/28 05:12:24;;;;;;;11.35;4.50;;;;;;;5.79;77.05;101421.19;5101260;28;20748;-80
2022/04/28 05:14:49;;;;;;;11.40;4.80;;;;;;;5.80;76.87;101422.84;5101832;28;20027;-81
2022/04/28 05:17:16;;;;;;;12.80;5.17;;;;;;;5.80;77.00;101428.22;5102238;28;20250;-83
2022/04/28 05:19:42;;;;;;;13.05;4.72;;;;;;;5.95;77.12;101430.41;5087794;28;20032;-83
2022/04/28 05:22:07;;;;;;;12.03;5.27;;;;;;;5.96;76.51;101419.56;5108327;28;20028;-82
2022/04/28 05:24:33;;;;;;;14.00;4.68;;;;;;;5.98;76.38;101427.44;5103941;28;20458;-83
2022/04/28 05:26:58;;;;;;;12.95;4.85;;;;;;;6.00;76.87;101425.44;5107829;28;20355;-82
2022/04/28 05:29:24;;;;;;;12.07;4.60;;;;;;;6.02;76.14;101420.78;5108480;28;20020;-83
2022/04/28 05:31:49;;;;;;;10.10;4.43;;;;;;;6.03;76.59;101430.50;5103813;28;20038;-83
2022/04/28 05:34:15;;;;;;;10.13;4.67;;;;;;;6.12;75.76;101427.75;5101213;28;20020;-83
2022/04/28 05:36:43;;;;;;;13.98;4.90;;;;;;;6.09;75.68;101435.25;5101262;28;20278;-83
2022/04/28 05:39:08;;;;;;;15.27;5.32;;;;;;;6.23;75.67;101440.94;5101563;28;20035;-82
2022/04/28 05:41:34;;;;;;;13.03;5.03;;;;;;;6.18;75.56;101442.38;5083095;28;20032;-83
2022/04/28 05:46:45;;;;;;;13.50;4.72;;;;;;;6.37;74.91;101447.59;5100374;28;20450;-82
2022/04/28 05:49:10;;;;;;;14.52;4.95;;;;;;;6.31;75.32;101450.84;5100974;28;20028;-81
2022/04/28 05:51:36;;;;;;;10.77;4.80;;;;;;;6.44;74.80;101445.16;5102248;28;20129;-81
2022/04/28 05:54:01;;;;;;;13.98;4.75;;;;;;;6.41;74.72;101443.63;5084350;28;20382;-82
2022/04/28 05:56:28;;;;;;;15.67;5.30;;;;;;;6.47;74.75;101455.53;5101413;28;20100;-83
2022/04/28 05:58:55;;;;;;;14.43;4.68;;;;;;;6.42;74.82;101457.84;5082918;28;20266;-83
2022/04/28 06:01:21;;;;;;;10.10;4.70;;;;;;;6.27;75.69;101462.84;5100454;28;20020;-82
2022/04/28 06:03:46;;;;;;;14.80;6.03;;;;;;;6.41;75.00;101469.53;5099745;28;20446;-82
2022/04/28 06:06:12;;;;;;;18.10;5.80;;;;;;;6.56;74.52;101459.97;5082025;28;20055;-82
2022/04/28 06:08:38;;;;;;;13.67;5.77;;;;;;;6.69;74.02;101456.91;5100455;28;20049;-82
2022/04/28 06:11:04;;;;;;;11.18;5.70;;;;;;;6.78;73.63;101464.03;5082288;28;20071;-83
2022/04/28 06:13:30;;;;;;;12.48;5.32;;;;;;;6.93;72.89;101465.16;5100035;28;20489;-83
2022/04/28 06:15:58;;;;;;;12.70;5.32;;;;;;;6.73;73.49;101459.13;5099885;28;20032;-82
2022/04/28 06:18:24;;;;;;;11.15;5.13;;;;;;;6.77;73.08;101462.34;5099983;28;20382;-82
2022/04/28 06:20:50;;;;;;;12.43;5.32;;;;;;;6.81;73.10;101467.22;5081192;28;20028;-82
2022/04/28 06:23:16;;;;;;;10.38;4.35;;;;;;;6.87;72.90;101468.44;5100205;28;20127;-82
2022/04/28 06:25:41;;;;;;;11.63;5.17;;;;;;;7.00;72.18;101466.19;5100222;28;20028;-82
2022/04/28 06:28:09;;;;;;;10.27;4.68;;;;;;;7.05;71.97;101469.25;5065838;28;20032;-83
2022/04/28 06:30:34;;;;;;;12.95;4.95;;;;;;;7.23;71.67;101467.38;5082838;28;20169;-83
2022/04/28 06:33:00;;;;;;;13.27;4.50;;;;;;;7.29;71.05;101465.91;5083240;28;20127;-83
2022/04/28 06:35:25;;;;;;;11.93;4.40;;;;;;;7.46;70.39;101467.69;5101218;28;20092;-83
2022/04/28 06:37:51;;;;;;;11.55;4.65;;;;;;;7.66;69.78;101471.81;5100377;28;20462;-83
2022/04/28 06:40:17;;;;;;;10.13;4.70;;;;;;;8.02;68.68;101475.16;5100798;28;20035;-85
2022/04/28 06:42:44;;;;;;;11.38;4.82;;;;;;;8.55;66.42;101473.94;5100207;28;20269;-84
2022/04/28 06:45:10;;;;;;;12.30;4.82;;;;;;;8.57;65.85;101466.56;5101263;28;20028;-84
2022/04/28 06:47:36;;;;;;;12.02;5.13;;;;;;;8.70;65.47;101469.59;5083505;28;20028;-84
2022/04/28 06:50:02;;;;;;;12.77;4.60;;;;;;;8.97;65.18;101471.09;5100518;28;20028;-84
2022/04/28 06:52:30;;;;;;;10.52;4.68;;;;;;;8.99;64.53;101479.00;5081734;28;20127;-83
2022/04/28 06:54:56;;;;;;;10.10;4.28;;;;;;;8.81;65.47;101475.63;5081122;28;20020;-84
2022/04/28 06:57:21;;;;;;;13.40;4.55;;;;;;;8.95;64.76;101472.28;5098202;28;20542;-85
2022/04/28 06:59:47;;;;;;;12.07;5.10;;;;;;;8.69;65.34;101475.97;5098086;28;20032;-84
2022/04/28 07:02:15;;;;;;;11.70;3.95;;;;;;;8.76;66.22;101484.22;5098162;28;20048;-84
2022/04/28 07:04:41;;;;;;;8.55;3.95;;;;;;;8.73;65.87;101492.63;5098261;28;20380;-83
2022/04/28 07:07:06;;;;;;;14.70;4.25;;;;;;;8.30;67.24;101490.97;5081496;28;20066;-83
2022/04/28 07:09:32;;;;;;;10.73;4.13;;;;;;;8.58;67.04;101500.50;5099479;28;20478;-82
2022/04/28 07:11:57;;;;;;;13.33;4.50;;;;;;;8.69;65.69;101505.53;5099501;28;20088;-81
2022/04/28 07:14:22;;;;;;;9.90;4.50;;;;;;;8.99;64.44;101513.94;5082232;28;20035;-82
2022/04/28 07:16:48;;;;;;;13.00;4.67;;;;;;;9.00;64.66;101512.94;5100910;28;20398;-82
2022/04/28 07:19:13;;;;;;;12.27;4.10;;;;;;;9.18;63.71;101507.38;5102962;28;20024;-83
2022/04/28 07:21:38;;;;;;;11.70;4.97;;;;;;;9.07;64.66;101513.13;5101009;28;20038;-82
2022/04/28 07:24:04;;;;;;;9.80;4.80;;;;;;;9.27;64.41;101507.22;5081028;28;20475;-82
2022/04/28 07:26:29;;;;;;;10.23;4.28;;;;;;;9.11;63.93;101509.94;5098618;28;20055;-82
2022/04/28 07:28:55;;;;;;;10.80;4.23;;;;;;;9.17;64.45;101514.59;5099236;28;20028;-83
2022/04/28 07:31:20;;;;;;;15.13;4.90;;;;;;;9.08;63.97;101515.63;5101205;28;20292;-83
2022/04/28 07:33:46;;;;;;;9.55;4.70;;;;;;;9.11;64.24;101520.69;5085680;28;20483;-82
2022/04/28 07:36:14;;;;;;;10.87;4.10;;;;;;;9.28;63.74;101522.34;5104367;28;20047;-82
2022/04/28 07:38:41;;;;;;;11.65;5.00;;;;;;;9.10;64.22;101519.00;5103999;28;20251;-82
2022/04/28 07:41:07;;;;;;;11.00;5.07;;;;;;;9.27;63.41;101526.03;5104180;28;20024;-82
2022/04/28 07:43:32;;;;;;;13.50;4.22;;;;;;;9.24;64.15;101525.53;5103645;28;20038;-82
2022/04/28 07:45:57;;;;;;;11.87;5.17;;;;;;;9.31;63.50;101521.19;5085085;28;20104;-83
2022/04/28 07:48:23;;;;;;;9.33;4.37;;;;;;;9.55;63.02;101526.50;5102512;28;20024;-82
2022/04/28 07:50:49;;;;;;;9.53;4.60;;;;;;;9.55;62.83;101525.66;5085115;28;20031;-82
2022/04/28 07:53:14;;;;;;;;;;;;;;;9.49;62.54;101529.88;5104047;28;20111;-82
2022/04/28 07:55:39;;;;;;;11.15;4.45;;;;;;;9.62;62.75;101530.19;5101766;28;19963;-82
2022/04/28 07:58:05;;;;;;;8.97;4.43;;;;;;;10.02;61.37;101537.31;5102582;28;20111;-82
2022/04/28 08:00:30;;;;;;;10.43;4.20;;;;;;;10.21;61.18;101536.06;5101681;28;20024;-82
2022/04/28 08:02:58;;;;;;;11.13;4.88;;;;;;;10.01;60.68;101532.94;5103437;28;20035;-82
2022/04/28 08:05:23;;;;;;;8.27;4.28;;;;;;;10.17;61.07;101541.97;5103235;28;20047;-82
2022/04/28 08:07:49;;;;;;;13.35;5.53;;;;;;;10.40;60.59;101542.88;5103309;28;20463;-81
2022/04/28 08:10:15;;;;;;;10.77;4.60;;;;;;;10.50;59.85;101539.97;5103422;28;20028;-82
2022/04/28 08:12:41;;;;;;;10.25;4.32;;;;;;;10.42;60.87;101546.22;5103057;28;20322;-82
2022/04/28 08:15:07;;;;;;;10.07;4.07;;;;;;;10.71;59.96;101553.66;5084851;28;20111;-82
2022/04/28 08:17:33;;;;;;;9.63;5.05;;;;;;;10.85;58.69;101552.88;5103261;28;20016;-82
2022/04/28 08:19:58;;;;;;;12.50;4.63;;;;;;;10.57;59.09;101547.16;5085338;28;20340;-82
2022/04/28 08:22:24;;;;;;;12.20;4.30;;;;;;;10.82;59.14;101547.84;5090616;28;20024;-82
2022/04/28 08:24:49;;;;;;;11.50;4.35;;;;;;;10.89;58.60;101553.38;5110404;28;20039;-81
2022/04/28 08:27:14;;;;;;;9.73;4.20;;;;;;;10.68;58.98;101552.16;5109078;28;20032;-82
2022/04/28 08:29:40;;;;;;;8.10;3.80;;;;;;;10.81;58.54;101545.31;5107753;28;20479;-83
2022/04/28 08:32:07;;;;;;;10.35;4.13;;;;;;;11.05;57.88;101558.66;5092909;28;20032;-82
2022/04/28 08:34:33;;;;;;;8.13;4.20;;;;;;;11.24;57.52;101554.63;5090304;28;20159;-82
2022/04/28 08:36:59;;;;;;;16.80;5.53;;;;;;;11.33;57.11;101554.34;5102481;28;20055;-82
2022/04/28 08:39:24;;;;;;;10.32;4.68;;;;;;;11.35;56.67;101556.88;5102750;28;20043;-84
2022/04/28 08:41:49;;;;;;;9.98;4.00;;;;;;;11.31;56.81;101559.09;5101977;28;20079;-82
2022/04/28 08:44:20;;;;;;;8.90;3.40;;;;;;;11.51;56.34;101555.88;5083035;28;20032;-82
2022/04/28 08:46:53;;;;;;;9.90;3.97;;;;;;;11.75;55.94;101569.16;5085574;28;20266;-83
2022/04/28 08:49:31;;;;;;;12.80;4.80;;;;;;;11.86;55.72;101563.31;5103950;28;20052;-82
2022/04/28 08:51:58;;;;;;;9.77;3.70;;;;;;;12.10;55.80;101548.69;5101863;28;20060;-83
2022/04/28 08:54:27;;;;;;;8.93;3.85;;;;;;;12.20;55.44;101557.34;5101224;28;20040;-82
2022/04/28 08:56:54;;;;;;;9.68;4.00;;;;;;;12.26;54.78;101564.69;5101242;28;20039;-82
2022/04/28 08:59:20;;;;;;;13.93;4.88;;;;;;;11.99;55.06;101560.81;5101099;28;20058;-82
2022/04/28 09:01:46;;;;;;;8.90;4.10;;;;;;;12.12;55.12;101562.84;5101806;28;20036;-83
2022/04/28 09:04:13;;;;;;;7.43;3.67;;;;;;;12.05;55.52;101565.44;5081652;28;20112;-83
2022/04/28 09:06:40;;;;;;;11.48;4.47;;;;;;;11.98;55.29;101566.41;5100239;28;20046;-83
2022/04/28 09:09:15;;;;;;;11.80;4.50;;;;;;;12.00;55.01;101567.06;5100318;28;20343;-81
2022/04/28 09:11:42;;;;;;;9.20;4.55;;;;;;;12.32;54.73;101565.81;5099995;28;20082;-83
2022/04/28 09:14:14;;;;;;;8.50;4.00;;;;;;;12.70;53.77;101558.38;5100917;28;20032;-81
2022/04/28 09:16:46;;;;;;;11.93;4.03;;;;;;;12.80;53.13;101559.72;5100580;28;20024;-84
2022/04/28 09:19:13;;;;;;;9.80;4.55;;;;;;;12.83;53.24;101561.22;5099709;28;20379;-85
2022/04/28 09:21:42;;;;;;;9.93;4.45;;;;;;;12.91;52.07;101557.53;5100183;28;20059;-84
2022/04/28 09:24:09;;;;;;;12.43;4.65;;;;;;;12.70;52.88;101558.38;5099932;28;20106;-80
2022/04/28 09:26:35;;;;;;;9.55;4.22;;;;;;;12.92;51.29;101551.09;5099833;28;20023;-82
2022/04/28 09:29:03;;;;;;;8.55;4.22;;;;;;;13.16;50.87;101550.75;5099831;28;20019;-83
2022/04/28 09:31:36;;;;;;;12.95;5.28;;;;;;;13.14;50.86;101550.06;5100268;28;20039;-83
2022/04/28 09:34:10;;;;;;;9.68;3.47;;;;;;;13.14;50.91;101552.78;5100123;28;20032;-83
2022/04/28 09:36:37;;;;;;;13.70;5.03;;;;;;;13.15;50.54;101549.91;5083518;28;20099;-83
2022/04/28 09:39:04;;;;;;;12.73;4.60;;;;;;;13.26;49.78;101545.84;5100117;28;20031;-83
2022/04/28 09:44:16;;;;;;;9.02;4.38;;;;;;;12.99;50.31;101552.00;5099589;28;20043;-83
2022/04/28 09:46:43;;;;;;;9.23;3.88;;;;;;;13.18;50.27;101541.41;5081196;28;20459;-83
2022/04/28 09:49:11;;;;;;;10.25;4.10;;;;;;;13.24;49.57;101541.66;5099181;28;20521;-83
2022/04/28 09:51:38;;;;;;;11.45;4.13;;;;;;;13.29;49.72;101545.44;5100246;28;20024;-83
2022/04/28 09:54:10;;;;;;;11.82;4.60;;;;;;;13.48;50.45;101541.22;5081551;28;20371;-83
2022/04/28 09:56:37;;;;;;;11.23;4.68;;;;;;;13.49;50.65;101538.31;5100235;28;20526;-83
2022/04/28 09:59:05;;;;;;;11.13;4.38;;;;;;;13.61;50.28;101537.81;5100556;28;20133;-83
2022/04/28 10:01:34;;;;;;;9.55;4.53;;;;;;;13.79;49.55;101538.13;5099592;28;20465;-83
2022/04/28 10:04:01;;;;;;;10.95;4.43;;;;;;;13.78;49.18;101537.28;5082335;28;20072;-82
2022/04/28 10:06:29;;;;;;;9.48;4.25;;;;;;;14.09;48.35;101542.25;5100092;28;20090;-83
2022/04/28 10:08:56;;;;;;;10.38;4.22;;;;;;;14.13;48.35;101529.97;5101834;28;20087;-82
2022/04/28 10:11:23;;;;;;;9.60;4.40;;;;;;;13.93;47.92;101534.47;5100775;28;20028;-83
2022/04/28 10:13:50;;;;;;;9.27;3.78;;;;;;;14.07;47.70;101530.78;5098429;28;20031;-83
2022/04/28 10:16:19;;;;;;;9.65;4.05;;;;;;;14.40;45.47;101540.94;5099148;28;20039;-82
2022/04/28 10:18:50;;;;;;;8.60;4.20;;;;;;;14.24;44.15;101534.81;5098946;28;20098;-82
2022/04/28 10:21:20;;;;;;;7.80;4.13;;;;;;;14.28;45.13;101539.84;5098735;28;20032;-83
2022/04/28 10:32:23;;;;;;;7.45;3.95;;;;;;;14.57;45.78;101526.84;5098887;28;20481;-81
2022/04/28 10:35:03;;;;;;;8.27;4.07;;;;;;;14.74;45.13;101534.59;5043366;28;20052;-79
2022/04/28 10:37:39;;;;;;;7.78;3.65;;;;;;;14.72;45.43;101531.25;5079020;28;20036;-84
2022/04/28 10:40:05;;;;;;;10.88;4.53;;;;;;;14.66;45.03;101530.22;5059738;28;20096;-82
2022/04/28 10:42:35;;;;;;;9.77;4.05;;;;;;;14.70;45.66;101528.72;5078155;28;20060;-81
2022/04/28 10:45:04;;;;;;;11.27;4.35;;;;;;;14.73;44.61;101530.22;5078452;28;20054;-81
2022/04/28 10:47:34;;;;;;;9.18;4.05;;;;;;;14.80;44.79;101526.47;5078418;28;20123;-81
2022/04/28 10:50:00;;;;;;;9.05;4.50;;;;;;;14.72;44.27;101525.81;5078182;28;20020;-81
2022/04/28 10:52:25;;;;;;;10.27;4.22;;;;;;;14.71;44.97;101524.97;5078624;28;20039;-83
2022/04/28 10:54:58;;;;;;;8.90;3.60;;;;;;;14.86;43.69;101522.94;5079061;28;20032;-82
2022/04/28 10:57:29;;;;;;;8.15;3.55;;;;;;;15.15;42.31;101534.47;5079339;28;20038;-82
2022/04/28 10:59:55;;;;;;;8.90;3.67;;;;;;;14.99;43.65;101524.84;5078756;28;20036;-83
2022/04/28 11:02:42;;;;;;;7.95;4.18;;;;;;;15.04;43.78;101524.22;5078777;28;20048;-80
2022/04/28 11:05:32;;;;;;;7.93;3.72;;;;;;;15.22;43.31;101519.84;5059660;28;20055;-81
2022/04/28 11:07:59;;;;;;;10.30;4.05;;;;;;;15.06;43.38;101531.09;5059945;28;20040;-81
2022/04/28 11:10:25;;;;;;;7.75;4.28;;;;;;;15.33;42.87;101520.25;5077471;28;20463;-81
2022/04/28 11:12:50;;;;;;;7.97;3.92;;;;;;;15.89;42.23;101515.19;5079283;28;20043;-82
2022/04/28 11:15:17;;;;;;;;;;;;;;;15.76;42.30;101518.78;5079258;28;20082;-81
2022/04/28 11:17:44;;;;;;;8.10;3.72;;;;;;;15.65;42.69;101521.28;5080049;28;19909;-82
2022/04/28 11:20:20;;;;;;;10.25;4.45;;;;;;;15.31;43.26;101516.91;5062122;28;20028;-82
2022/04/28 11:22:48;;;;;;;9.88;4.28;;;;;;;15.10;43.35;101504.38;5076859;28;20039;-79
2022/04/28 11:25:16;;;;;;;14.05;4.53;;;;;;;15.32;44.01;101513.16;5076506;28;20103;-79
2022/04/28 11:27:42;;;;;;;9.30;4.45;;;;;;;15.53;43.41;101510.22;5083911;28;20029;-79
2022/04/28 11:30:14;;;;;;;11.52;5.35;;;;;;;15.98;42.86;101508.47;5061048;28;20349;-80
2022/04/28 11:32:59;;;;;;;9.02;4.05;;;;;;;16.03;42.35;101511.38;5082942;28;20462;-81
2022/04/28 11:35:35;;;;;;;8.20;4.15;;;;;;;15.61;43.30;101504.56;5062558;28;20040;-79
2022/04/28 11:38:00;;;;;;;10.25;4.03;;;;;;;15.62;41.89;101507.09;5057960;28;20451;-79
2022/04/28 11:40:26;;;;;;;;;;;;;;;15.96;42.36;101502.41;5077624;28;20071;-80
2022/04/28 11:42:59;;;;;;;10.13;4.43;;;;;;;16.40;42.06;101501.59;5057588;28;19915;-79
2022/04/28 11:45:30;;;;;;;8.52;4.05;;;;;;;16.41;41.70;101503.28;5076939;28;20116;-82
2022/04/28 11:47:58;;;;;;;10.00;4.45;;;;;;;16.43;40.99;101501.19;5059793;28;20052;-79
2022/04/28 11:50:26;;;;;;;11.73;4.53;;;;;;;16.43;40.75;101503.06;5079007;28;20161;-79
2022/04/28 11:53:12;;;;;;;10.48;4.35;;;;;;;16.58;40.30;101498.16;5062068;28;20376;-81
2022/04/28 11:55:40;;;;;;;9.27;4.65;;;;;;;16.65;40.50;101493.56;5078857;28;20036;-80